Time;durP1;ratioP1;P1;durP2;ratioP2;P2;SDS_P1;SDS_P2;PMS_P1;PMS_P2;Temp;Humidity;BMP_temperature;BMP_pressure;BME280_temperature;BME280_humidity;BME280_pressure;Samples;Min_cycle;Max_cycle;Signal;HPM_P1;HPM_P2
2022/06/08 04:04:43;;;;;;;1.80;1.70;;;14.50;99.90;;;;;;5341406;23;20492;-64
2022/06/08 04:07:09;;;;;;;2.07;1.83;;;14.70;99.90;;;;;;4974799;28;20394;-65
2022/06/08 04:09:35;;;;;;;2.50;1.87;;;14.80;99.90;;;;;;4975163;28;20395;-64
2022/06/08 04:12:01;;;;;;;1.70;1.60;;;15.00;99.90;;;;;;4975083;28;20404;-65
2022/06/08 04:14:27;;;;;;;1.37;1.30;;;15.10;99.90;;;;;;4974577;28;20187;-65
2022/06/08 04:16:53;;;;;;;2.83;1.87;;;15.30;99.90;;;;;;4974040;28;20462;-65
2022/06/08 04:19:19;;;;;;;1.50;1.20;;;15.50;99.90;;;;;;4974384;28;20431;-65
2022/06/08 04:21:46;;;;;;;1.77;1.67;;;15.60;99.90;;;;;;4974504;28;20405;-64
2022/06/08 04:24:14;;;;;;;1.30;1.20;;;15.70;99.90;;;;;;4974305;28;20518;-64
2022/06/08 04:26:40;;;;;;;1.43;1.43;;;15.90;99.90;;;;;;4974958;28;20446;-64
2022/06/08 04:29:07;;;;;;;1.70;1.60;;;16.00;99.90;;;;;;4974971;28;20412;-65
2022/06/08 04:31:34;;;;;;;0.90;0.90;;;16.10;99.90;;;;;;4974538;28;20402;-64
2022/06/08 04:34:01;;;;;;;1.27;1.27;;;16.20;99.90;;;;;;4972515;28;20335;-70
2022/06/08 04:36:27;;;;;;;1.60;1.50;;;16.40;99.90;;;;;;4974553;28;20228;-68
2022/06/08 04:38:53;;;;;;;1.40;1.40;;;16.60;99.90;;;;;;4974713;28;20821;-66
2022/06/08 04:41:20;;;;;;;0.90;0.90;;;16.80;99.90;;;;;;4974854;28;20504;-65
2022/06/08 04:43:45;;;;;;;1.03;1.03;;;17.00;99.90;;;;;;4974365;28;20190;-65
2022/06/08 04:46:17;;;;;;;1.13;1.13;;;17.20;99.90;;;;;;4974242;28;20411;-65
2022/06/08 04:48:45;;;;;;;1.13;1.13;;;17.40;99.90;;;;;;4974571;28;20190;-65
2022/06/08 04:51:12;;;;;;;2.30;1.30;;;17.50;99.90;;;;;;4974394;28;20474;-65
2022/06/08 04:53:39;;;;;;;0.97;0.97;;;17.60;99.90;;;;;;4974017;28;20484;-66
2022/06/08 04:56:05;;;;;;;1.30;1.07;;;17.70;99.90;;;;;;4972764;28;20429;-64
2022/06/08 04:58:31;;;;;;;1.87;1.77;;;17.60;99.90;;;;;;4966863;28;20451;-65
2022/06/08 05:00:56;;;;;;;1.90;1.70;;;17.50;99.90;;;;;;4956972;28;20948;-65
2022/06/08 05:03:22;;;;;;;1.87;1.77;;;17.50;99.90;;;;;;4953490;28;20214;-68
2022/06/08 05:05:48;;;;;;;2.50;1.87;;;17.40;99.90;;;;;;4954797;29;20206;-68
2022/06/08 05:08:17;;;;;;;3.63;2.47;;;17.40;99.90;;;;;;4954824;28;20792;-67
2022/06/08 05:10:43;;;;;;;1.60;1.50;;;17.40;99.90;;;;;;4953433;29;20398;-69
2022/06/08 05:13:10;;;;;;;1.20;1.20;;;17.40;99.90;;;;;;4954426;28;20734;-69
2022/06/08 05:15:38;;;;;;;1.60;1.50;;;17.40;99.90;;;;;;4969667;28;20434;-69
2022/06/08 05:18:05;;;;;;;1.10;1.10;;;17.40;99.90;;;;;;4974410;28;20413;-69
2022/06/08 05:20:33;;;;;;;1.33;1.23;;;17.50;99.90;;;;;;4976740;28;20406;-68
2022/06/08 05:23:00;;;;;;;0.80;0.80;;;17.50;99.90;;;;;;4977619;28;20877;-69
2022/06/08 05:25:29;;;;;;;1.73;1.20;;;17.50;99.90;;;;;;4978143;28;20868;-69
2022/06/08 05:27:55;;;;;;;1.97;1.33;;;17.70;99.90;;;;;;4978026;28;20395;-69
2022/06/08 05:30:21;;;;;;;1.67;1.10;;;17.70;99.90;;;;;;4962963;28;20449;-68
2022/06/08 05:32:46;;;;;;;2.83;1.20;;;17.80;99.90;;;;;;4976600;28;20261;-69
2022/06/08 05:35:13;;;;;;;1.07;1.03;;;17.80;99.90;;;;;;4977775;28;20420;-68
2022/06/08 05:37:38;;;;;;;1.30;1.20;;;17.80;99.90;;;;;;4977751;28;20218;-66
2022/06/08 05:40:06;;;;;;;1.40;1.00;;;17.90;99.90;;;;;;4976511;28;20397;-67
2022/06/08 05:42:32;;;;;;;1.07;1.03;;;18.00;99.90;;;;;;4977575;28;20175;-69
2022/06/08 05:44:58;;;;;;;1.73;1.63;;;18.10;99.90;;;;;;4963089;28;20745;-68
2022/06/08 05:47:25;;;;;;;4.73;2.77;;;18.30;99.90;;;;;;4958177;29;20402;-67
2022/06/08 05:49:50;;;;;;;2.60;1.70;;;18.40;99.90;;;;;;4958365;29;20565;-69
2022/06/08 05:52:17;;;;;;;2.30;1.17;;;18.60;99.90;;;;;;4958372;28;20398;-69
2022/06/08 05:54:44;;;;;;;1.00;0.93;;;18.80;99.90;;;;;;4958167;28;20197;-68
2022/06/08 05:57:10;;;;;;;8.63;1.30;;;18.90;99.90;;;;;;4958231;28;20471;-68
2022/06/08 05:59:36;;;;;;;0.90;0.90;;;19.00;99.90;;;;;;4960341;28;20448;-69
2022/06/08 06:02:03;;;;;;;4.53;1.37;;;19.00;99.90;;;;;;4956891;28;20822;-68
2022/06/08 06:04:29;;;;;;;0.70;0.70;;;19.10;99.90;;;;;;4957371;28;20410;-68
2022/06/08 06:06:55;;;;;;;1.10;1.07;;;19.30;99.90;;;;;;4958053;28;20404;-69
2022/06/08 06:09:21;;;;;;;1.13;1.03;;;19.60;99.90;;;;;;4958203;29;20442;-68
2022/06/08 06:11:47;;;;;;;1.10;1.10;;;19.80;99.90;;;;;;4958040;28;20214;-68
2022/06/08 06:14:13;;;;;;;1.87;1.40;;;19.90;99.90;;;;;;4969842;28;20815;-68
2022/06/08 06:16:39;;;;;;;1.83;1.10;;;20.00;99.90;;;;;;4976954;28;20210;-69
2022/06/08 06:19:05;;;;;;;1.10;0.93;;;20.10;99.90;;;;;;4977020;28;20465;-68
2022/06/08 06:21:31;;;;;;;1.30;0.90;;;20.00;99.90;;;;;;4977137;28;20215;-69
2022/06/08 06:23:58;;;;;;;1.17;1.07;;;19.90;99.90;;;;;;4976621;28;20192;-69
2022/06/08 06:26:24;;;;;;;0.80;0.80;;;19.80;99.90;;;;;;4977152;28;20415;-68
2022/06/08 06:28:51;;;;;;;1.50;0.83;;;19.70;99.90;;;;;;4963580;28;20494;-68
2022/06/08 06:31:30;;;;;;;1.87;1.67;;;19.60;99.90;;;;;;4956262;28;20177;-68
2022/06/08 06:33:56;;;;;;;1.33;0.97;;;19.70;99.90;;;;;;4956905;28;20411;-68
2022/06/08 06:36:21;;;;;;;1.20;1.10;;;19.70;99.90;;;;;;4961698;28;20459;-69
2022/06/08 06:38:47;;;;;;;1.53;1.43;;;19.80;99.90;;;;;;4976428;28;20486;-68
2022/06/08 06:41:15;;;;;;;1.80;1.20;;;19.90;99.90;;;;;;4975888;28;20181;-68
2022/06/08 06:43:41;;;;;;;4.33;1.10;;;20.00;99.90;;;;;;4975700;28;20478;-68
2022/06/08 06:46:13;;;;;;;1.40;1.30;;;20.20;99.90;;;;;;4976401;28;20443;-69
2022/06/08 06:48:39;;;;;;;2.40;1.80;;;20.40;99.90;;;;;;4976519;28;20172;-67
2022/06/08 06:51:06;;;;;;;1.07;0.93;;;20.50;99.90;;;;;;4970869;28;20504;-68
2022/06/08 06:53:32;;;;;;;1.37;1.27;;;20.70;99.90;;;;;;4956218;28;20760;-69
2022/06/08 06:55:58;;;;;;;2.63;1.20;;;20.90;99.90;;;;;;4956521;29;20501;-68
2022/06/08 06:58:24;;;;;;;1.10;1.10;;;21.10;99.90;;;;;;4956748;28;20177;-69
2022/06/08 07:00:49;;;;;;;0.80;0.80;;;21.00;99.30;;;;;;4957643;28;20398;-68
2022/06/08 07:03:16;;;;;;;1.57;1.17;;;21.00;99.10;;;;;;4956580;28;20383;-68
2022/06/08 07:05:41;;;;;;;1.17;1.10;;;21.10;99.40;;;;;;4956823;29;20667;-68
2022/06/08 07:08:08;;;;;;;1.10;1.00;;;21.20;99.70;;;;;;4956909;29;20411;-68
2022/06/08 07:10:34;;;;;;;1.63;0.90;;;21.40;99.30;;;;;;4956604;28;20176;-68
2022/06/08 07:13:00;;;;;;;1.00;0.83;;;21.50;98.80;;;;;;4956243;28;20877;-67
2022/06/08 07:15:27;;;;;;;1.20;0.87;;;21.80;98.50;;;;;;4969905;28;20472;-67
2022/06/08 07:17:53;;;;;;;3.03;2.50;;;22.00;98.40;;;;;;4975182;28;20208;-70
2022/06/08 07:20:19;;;;;;;1.80;1.70;;;22.20;98.30;;;;;;4974143;28;20835;-68
2022/06/08 07:22:46;;;;;;;1.50;1.40;;;22.40;96.70;;;;;;4975288;28;20379;-70
2022/06/08 07:25:13;;;;;;;2.50;0.80;;;22.70;96.50;;;;;;4975537;28;20428;-66
2022/06/08 07:27:39;;;;;;;1.23;1.13;;;23.10;96.50;;;;;;4974121;28;20428;-69
2022/06/08 07:30:06;;;;;;;2.17;1.10;;;23.60;95.30;;;;;;4972420;28;20421;-68
2022/06/08 07:32:32;;;;;;;1.13;1.03;;;24.20;95.70;;;;;;4975113;28;20477;-67
2022/06/08 07:34:58;;;;;;;5.40;1.50;;;25.00;95.20;;;;;;4975316;28;20509;-67
2022/06/08 07:37:25;;;;;;;1.13;1.03;;;26.00;92.80;;;;;;4975131;28;20459;-67
2022/06/08 07:39:52;;;;;;;0.73;0.73;;;27.10;92.00;;;;;;4975350;28;20255;-65
2022/06/08 07:42:18;;;;;;;1.10;0.87;;;28.40;89.90;;;;;;4974572;28;20430;-67
2022/06/08 07:44:44;;;;;;;1.13;1.03;;;29.60;86.10;;;;;;4970881;28;20419;-65
2022/06/08 07:47:10;;;;;;;1.13;1.10;;;30.70;81.60;;;;;;4955897;28;20165;-66
2022/06/08 07:49:39;;;;;;;0.93;0.93;;;31.70;76.90;;;;;;4955747;29;20412;-67
2022/06/08 07:52:17;;;;;;;1.13;1.00;;;32.40;72.00;;;;;;4955814;28;20417;-67
2022/06/08 07:54:44;;;;;;;2.10;1.90;;;33.00;70.80;;;;;;4955457;28;20434;-65
2022/06/08 07:57:20;;;;;;;1.57;1.33;;;33.50;69.00;;;;;;4955843;29;20456;-65
2022/06/08 07:59:46;;;;;;;1.37;1.13;;;34.00;66.30;;;;;;4955619;28;20467;-66
2022/06/08 08:02:12;;;;;;;1.50;1.40;;;34.40;64.10;;;;;;4955355;28;20416;-67
2022/06/08 08:04:38;;;;;;;1.33;1.17;;;34.70;61.50;;;;;;4955297;28;20432;-65
2022/06/08 08:07:05;;;;;;;3.90;1.73;;;35.00;61.20;;;;;;4954484;29;20411;-66
2022/06/08 08:09:34;;;;;;;1.50;1.40;;;35.30;59.30;;;;;;4955582;29;20201;-66
2022/06/08 08:12:00;;;;;;;4.00;3.07;;;35.30;57.10;;;;;;4955681;28;20465;-66
2022/06/08 08:14:26;;;;;;;1.50;1.40;;;35.30;57.90;;;;;;4960530;28;20447;-64
2022/06/08 08:16:53;;;;;;;3.03;1.70;;;35.50;58.40;;;;;;4974557;28;20467;-66
2022/06/08 08:19:22;;;;;;;1.43;1.33;;;35.80;57.70;;;;;;4974484;28;20896;-66
2022/06/08 08:21:49;;;;;;;3.77;1.80;;;35.90;56.50;;;;;;4974511;28;20463;-65
2022/06/08 08:24:15;;;;;;;2.47;1.37;;;35.60;55.90;;;;;;4974476;28;20466;-66
2022/06/08 08:26:43;;;;;;;1.13;1.13;;;35.10;56.50;;;;;;4958643;28;20800;-65
2022/06/08 08:29:09;;;;;;;3.80;2.80;;;34.90;56.50;;;;;;4955634;28;20789;-66
2022/06/08 08:31:34;;;;;;;1.00;1.00;;;34.50;56.90;;;;;;4955183;28;20427;-66
2022/06/08 08:34:00;;;;;;;1.53;1.13;;;34.10;56.90;;;;;;4953398;28;20201;-65
2022/06/08 08:36:26;;;;;;;1.93;1.70;;;34.10;56.70;;;;;;4974319;28;20196;-63
2022/06/08 08:38:51;;;;;;;1.57;1.00;;;34.50;56.10;;;;;;4974631;28;20617;-67
2022/06/08 08:44:23;;;;;;;2.03;1.40;;;35.10;56.30;;;;;;4974356;28;20266;-68
2022/06/08 08:47:05;;;;;;;2.80;1.30;;;35.80;54.10;;;;;;4974372;28;20411;-69
2022/06/08 08:49:33;;;;;;;1.43;1.33;;;36.00;53.40;;;;;;4968318;28;20432;-65
2022/06/08 08:52:02;;;;;;;1.73;1.50;;;36.10;53.50;;;;;;4954695;28;20941;-67
2022/06/08 08:54:37;;;;;;;0.93;0.90;;;36.10;53.00;;;;;;4953927;28;20436;-67
2022/06/08 08:57:11;;;;;;;1.10;1.10;;;36.00;52.80;;;;;;4955088;28;20550;-67
2022/06/08 08:59:42;;;;;;;1.40;1.30;;;36.30;53.10;;;;;;4955258;29;20400;-65
2022/06/08 09:02:13;;;;;;;1.30;1.30;;;36.70;51.30;;;;;;4954759;28;20432;-67
2022/06/08 09:04:47;;;;;;;1.33;1.20;;;36.90;51.10;;;;;;4957708;28;20761;-65
2022/06/08 09:07:14;;;;;;;1.20;1.20;;;37.30;50.60;;;;;;4968827;28;20431;-73
2022/06/08 09:09:39;;;;;;;1.30;1.20;;;37.50;50.90;;;;;;4974211;28;20888;-69
2022/06/08 09:12:10;;;;;;;1.30;1.20;;;37.80;49.40;;;;;;4973904;28;20423;-70
2022/06/08 09:14:58;;;;;;;1.23;1.20;;;37.80;48.70;;;;;;4974397;28;20203;-71
2022/06/08 09:17:56;;;;;;;2.30;1.00;;;37.90;48.40;;;;;;4974298;28;20487;-69
2022/06/08 09:20:31;;;;;;;1.20;1.07;;;37.80;47.60;;;;;;4954698;28;20433;-69
2022/06/08 09:23:00;;;;;;;1.33;1.20;;;37.30;48.50;;;;;;4954680;29;20780;-69
2022/06/08 09:25:34;;;;;;;1.33;1.23;;;37.10;47.80;;;;;;4952971;28;20497;-70
2022/06/08 09:28:02;;;;;;;1.50;1.40;;;37.20;47.50;;;;;;4953469;29;20846;-69
2022/06/08 09:30:30;;;;;;;1.10;1.10;;;37.30;48.00;;;;;;4954907;28;20412;-70
2022/06/08 09:33:23;;;;;;;0.93;0.93;;;37.30;46.20;;;;;;4954328;28;20408;-68
2022/06/08 09:35:55;;;;;;;1.40;1.30;;;37.20;45.60;;;;;;4954827;28;20924;-68
2022/06/08 09:38:24;;;;;;;0.83;0.83;;;36.90;46.60;;;;;;4955078;28;20463;-72
2022/06/08 09:41:26;;;;;;;3.60;3.30;;;36.80;47.00;;;;;;4954813;28;20424;-70
2022/06/08 09:44:00;;;;;;;1.93;1.83;;;36.80;47.20;;;;;;4954503;28;20424;-71
2022/06/08 09:53:33;;;;;;;1.60;1.50;;;36.40;47.90;;;;;;4974031;28;20494;-68
2022/06/08 09:55:59;;;;;;;1.27;1.17;;;35.80;48.00;;;;;;4940397;28;20427;-71
2022/06/08 09:58:37;;;;;;;1.33;0.97;;;35.70;48.80;;;;;;4974120;28;20447;-69
2022/06/08 10:01:27;;;;;;;0.90;0.90;;;35.70;48.90;;;;;;4974177;28;20235;-72
2022/06/08 10:04:12;;;;;;;1.07;1.07;;;35.40;47.00;;;;;;4972644;28;20502;-70
2022/06/08 10:06:47;;;;;;;0.93;0.80;;;34.90;45.60;;;;;;4975929;28;20522;-69
2022/06/08 10:09:41;;;;;;;1.00;1.00;;;34.80;46.10;;;;;;4977403;28;20404;-71
2022/06/08 10:12:39;;;;;;;2.03;1.60;;;34.70;47.10;;;;;;4977083;28;20741;-70
2022/06/08 10:15:24;;;;;;;0.80;0.80;;;34.40;48.90;;;;;;4975770;28;20472;-68
2022/06/08 10:18:16;;;;;;;3.00;1.10;;;34.10;49.70;;;;;;4976778;28;20463;-69
2022/06/08 10:20:48;;;;;;;1.00;1.00;;;33.80;49.30;;;;;;4977429;28;20546;-72
2022/06/08 10:23:35;;;;;;;1.30;1.00;;;33.80;49.20;;;;;;4976649;28;20419;-69
2022/06/08 10:26:07;;;;;;;2.40;0.97;;;33.40;49.00;;;;;;4976747;28;20420;-70
2022/06/08 10:28:43;;;;;;;1.27;1.00;;;32.70;50.10;;;;;;4977043;28;20408;-70
2022/06/08 10:31:23;;;;;;;0.80;0.80;;;31.90;52.10;;;;;;4976384;28;20438;-71
2022/06/08 10:34:05;;;;;;;1.30;0.90;;;31.20;52.10;;;;;;4976093;28;20435;-72
2022/06/08 10:36:33;;;;;;;1.23;1.00;;;30.70;51.90;;;;;;4976465;28;20951;-70
2022/06/08 10:39:01;;;;;;;1.60;0.90;;;30.60;52.80;;;;;;4975418;28;20459;-71
2022/06/08 10:44:48;;;;;;;1.33;0.67;;;30.10;53.70;;;;;;4976575;28;20418;-70
2022/06/08 10:47:16;;;;;;;1.50;1.23;;;29.90;53.90;;;;;;4976574;28;20412;-71
2022/06/08 10:49:45;;;;;;;0.90;0.90;;;29.90;54.70;;;;;;4976326;28;20397;-70
2022/06/08 10:52:34;;;;;;;0.80;0.80;;;30.20;53.70;;;;;;4975946;28;20408;-70
2022/06/08 10:55:16;;;;;;;0.97;0.90;;;30.50;54.00;;;;;;4969066;28;20461;-71
2022/06/08 10:57:50;;;;;;;0.70;0.70;;;30.80;51.40;;;;;;4956850;28;20462;-70
2022/06/08 11:00:19;;;;;;;1.00;1.00;;;31.10;51.90;;;;;;4956640;28;20428;-71
2022/06/08 11:02:48;;;;;;;0.83;0.83;;;31.30;51.70;;;;;;4956219;28;20510;-70
2022/06/08 11:05:28;;;;;;;0.77;0.70;;;31.30;51.10;;;;;;4964420;28;21041;-71
2022/06/08 11:08:14;;;;;;;0.97;0.90;;;31.30;52.20;;;;;;4976347;28;20403;-70
2022/06/08 11:10:50;;;;;;;1.17;1.07;;;31.20;50.40;;;;;;4975716;28;20451;-72
2022/06/08 11:13:22;;;;;;;1.13;0.90;;;30.90;50.80;;;;;;4975710;28;20418;-69
2022/06/08 11:16:25;;;;;;;1.00;0.90;;;30.30;52.00;;;;;;4976084;28;20404;-73
2022/06/08 11:18:55;;;;;;;2.50;0.70;;;29.70;52.60;;;;;;4975438;28;20953;-71
2022/06/08 11:21:30;;;;;;;0.70;0.70;;;29.00;53.20;;;;;;4975819;28;20386;-70
2022/06/08 11:24:17;;;;;;;0.77;0.77;;;28.50;54.00;;;;;;4975534;28;20488;-69
2022/06/08 11:26:48;;;;;;;0.73;0.63;;;28.20;54.50;;;;;;4970086;28;20755;-70
2022/06/08 11:29:16;;;;;;;1.13;0.70;;;27.80;52.90;;;;;;4975974;28;20377;-71
2022/06/08 11:31:42;;;;;;;0.90;0.90;;;27.30;53.90;;;;;;4975755;28;20521;-69
2022/06/08 11:34:20;;;;;;;0.70;0.70;;;27.00;54.60;;;;;;4975294;28;20408;-70
2022/06/08 11:37:12;;;;;;;1.00;0.70;;;26.70;54.20;;;;;;4975868;28;20223;-71
2022/06/08 11:40:03;;;;;;;0.80;0.80;;;26.40;53.90;;;;;;4975297;28;20397;-69
2022/06/08 11:42:29;;;;;;;1.00;0.90;;;26.00;54.90;;;;;;4974050;28;20461;-72
2022/06/08 11:45:07;;;;;;;1.13;1.03;;;25.80;55.40;;;;;;4975368;28;20930;-69
2022/06/08 11:47:58;;;;;;;0.70;0.70;;;25.80;56.30;;;;;;4975346;28;20176;-69
2022/06/08 11:50:47;;;;;;;0.77;0.70;;;25.70;56.70;;;;;;4974088;28;20420;-70
2022/06/08 11:53:15;;;;;;;0.83;0.83;;;25.70;56.60;;;;;;4975081;28;20756;-70
2022/06/08 11:56:14;;;;;;;0.73;0.73;;;25.60;57.20;;;;;;4975266;28;20746;-70
2022/06/08 11:58:54;;;;;;;0.70;0.70;;;25.50;57.40;;;;;;4939407;28;20462;-70
2022/06/08 12:01:26;;;;;;;0.67;0.67;;;25.40;57.70;;;;;;4974011;28;20469;-69
2022/06/08 12:04:00;;;;;;;0.87;0.73;;;25.40;57.60;;;;;;4973378;28;20502;-69
2022/06/08 12:06:33;;;;;;;1.40;0.70;;;25.30;58.20;;;;;;4975187;28;20454;-69
2022/06/08 12:09:05;;;;;;;0.80;0.80;;;25.40;57.80;;;;;;4974731;28;20718;-71
2022/06/08 12:11:33;;;;;;;1.80;0.97;;;25.50;57.60;;;;;;4975258;28;20425;-69
2022/06/08 12:13:58;;;;;;;3.20;0.80;;;25.70;57.30;;;;;;4973273;28;20415;-69
2022/06/08 12:16:35;;;;;;;0.70;0.70;;;25.90;57.10;;;;;;4975061;28;20502;-69
2022/06/08 12:19:13;;;;;;;0.70;0.70;;;26.10;57.10;;;;;;4973890;28;20602;-72
2022/06/08 12:21:42;;;;;;;1.33;0.73;;;26.30;57.10;;;;;;4974884;28;21010;-69
2022/06/08 12:24:13;;;;;;;0.77;0.70;;;26.40;56.00;;;;;;4974311;28;20799;-70
2022/06/08 12:26:47;;;;;;;2.87;0.97;;;26.50;56.60;;;;;;4974579;28;20397;-71
2022/06/08 12:29:34;;;;;;;0.67;0.67;;;26.60;56.30;;;;;;4975405;28;20405;-71
2022/06/08 12:32:06;;;;;;;0.80;0.80;;;26.60;56.30;;;;;;4974722;28;20472;-72
2022/06/08 12:34:34;;;;;;;0.80;0.80;;;26.50;55.80;;;;;;4974505;28;20401;-69
2022/06/08 12:37:23;;;;;;;0.70;0.60;;;26.40;55.50;;;;;;4974815;28;20539;-70
2022/06/08 12:39:50;;;;;;;0.87;0.87;;;26.40;55.20;;;;;;4974606;28;20447;-69
2022/06/08 12:42:34;;;;;;;1.80;0.70;;;26.40;55.00;;;;;;4973371;28;20421;-71
2022/06/08 12:45:02;;;;;;;0.53;0.53;;;26.30;55.10;;;;;;4974551;28;20479;-69
2022/06/08 12:47:40;;;;;;;0.67;0.67;;;26.30;55.70;;;;;;4974460;28;20480;-70
2022/06/08 12:50:21;;;;;;;1.33;0.70;;;26.30;56.90;;;;;;4974687;28;20479;-70
2022/06/08 12:52:46;;;;;;;1.13;0.97;;;26.30;55.90;;;;;;4973992;28;20403;-70
2022/06/08 12:55:21;;;;;;;0.80;0.80;;;26.30;53.80;;;;;;4974382;28;20518;-70
2022/06/08 12:57:47;;;;;;;0.63;0.63;;;26.30;54.70;;;;;;4974722;28;20232;-70
2022/06/08 13:00:25;;;;;;;1.07;0.90;;;26.20;54.90;;;;;;4974535;28;20427;-72
2022/06/08 13:02:52;;;;;;;0.60;0.60;;;26.30;54.50;;;;;;4974142;28;20456;-70
2022/06/08 13:05:24;;;;;;;2.00;1.00;;;26.30;54.60;;;;;;4974178;28;20443;-71
2022/06/08 13:07:51;;;;;;;1.37;1.20;;;26.30;54.90;;;;;;4974159;28;20468;-68
2022/06/08 13:10:17;;;;;;;1.80;1.03;;;26.30;55.80;;;;;;4974237;28;20383;-71
2022/06/08 13:13:06;;;;;;;2.37;1.23;;;26.30;56.30;;;;;;4973979;28;20416;-67
2022/06/08 13:15:39;;;;;;;0.60;0.60;;;26.20;56.10;;;;;;4974331;28;20836;-71
2022/06/08 13:18:06;;;;;;;1.10;1.00;;;26.20;56.20;;;;;;4974143;28;20429;-68
2022/06/08 13:20:37;;;;;;;2.07;1.50;;;26.20;55.00;;;;;;4969577;28;20407;-71
2022/06/08 13:23:03;;;;;;;0.80;0.80;;;26.20;56.40;;;;;;4973607;28;20408;-70
2022/06/08 13:25:32;;;;;;;0.87;0.87;;;26.30;55.40;;;;;;4974378;28;20905;-72
2022/06/08 13:27:59;;;;;;;2.03;0.90;;;26.40;55.70;;;;;;4974240;28;20174;-68
2022/06/08 13:30:31;;;;;;;0.63;0.63;;;26.40;56.60;;;;;;4974292;28;20872;-71
2022/06/08 13:32:57;;;;;;;0.80;0.80;;;26.40;56.00;;;;;;4973987;28;20953;-69
2022/06/08 13:35:24;;;;;;;1.50;0.93;;;26.40;55.70;;;;;;4974394;28;20439;-69
2022/06/08 13:37:52;;;;;;;1.40;0.80;;;26.40;55.80;;;;;;4973937;28;20855;-68
2022/06/08 13:40:29;;;;;;;0.83;0.83;;;26.40;57.00;;;;;;4974555;28;20379;-70
2022/06/08 13:42:54;;;;;;;1.00;1.00;;;26.40;55.50;;;;;;4960708;28;20727;-70
2022/06/08 13:45:27;;;;;;;0.80;0.80;;;26.30;55.80;;;;;;4976409;28;20436;-70
2022/06/08 13:48:04;;;;;;;3.17;1.10;;;26.10;56.00;;;;;;4977856;28;20185;-70
2022/06/08 13:50:36;;;;;;;1.00;1.00;;;26.10;56.50;;;;;;4977749;28;20418;-72
2022/06/08 13:53:05;;;;;;;1.60;0.73;;;26.10;55.40;;;;;;4976934;28;20789;-69
2022/06/08 13:55:35;;;;;;;1.60;0.70;;;26.30;55.20;;;;;;4976267;28;20399;-70
2022/06/08 13:58:05;;;;;;;1.90;1.00;;;26.50;54.80;;;;;;4976198;28;20428;-69
2022/06/08 14:00:37;;;;;;;0.87;0.80;;;26.70;54.50;;;;;;4977512;28;20432;-70
2022/06/08 14:03:08;;;;;;;2.20;1.07;;;26.60;54.30;;;;;;4975628;28;20951;-68
2022/06/08 14:13:56;;;;;;;1.10;1.00;;;26.20;56.40;;;;;;4977013;28;20423;-71
2022/06/08 14:16:23;;;;;;;1.07;1.07;;;26.10;56.30;;;;;;4976731;28;20443;-71
2022/06/08 14:18:51;;;;;;;1.73;1.23;;;26.00;56.00;;;;;;4977107;28;20257;-70
2022/06/08 14:21:18;;;;;;;3.63;0.90;;;25.80;56.20;;;;;;4976498;28;20397;-68
2022/06/08 14:23:46;;;;;;;0.80;0.80;;;25.60;56.10;;;;;;4976380;28;20435;-71
2022/06/08 14:26:19;;;;;;;1.73;0.80;;;25.40;56.40;;;;;;4976998;28;20740;-69
2022/06/08 14:28:47;;;;;;;1.87;1.27;;;25.30;56.60;;;;;;4977255;28;20498;-71
2022/06/08 14:31:19;;;;;;;0.80;0.80;;;25.30;57.30;;;;;;4976874;28;20400;-69
2022/06/08 14:33:45;;;;;;;1.13;0.70;;;25.20;57.40;;;;;;4976552;28;20912;-70
2022/06/08 14:36:17;;;;;;;1.10;1.00;;;25.30;57.80;;;;;;4976498;28;20420;-69
2022/06/08 14:38:44;;;;;;;1.00;0.90;;;25.30;57.70;;;;;;4976750;28;20935;-69
2022/06/08 14:41:10;;;;;;;0.60;0.60;;;25.40;57.80;;;;;;4976737;28;20406;-70
2022/06/08 14:43:35;;;;;;;0.80;0.80;;;25.40;57.90;;;;;;4976291;28;20423;-71
2022/06/08 14:46:02;;;;;;;0.80;0.80;;;25.40;57.90;;;;;;4976731;28;20172;-70
2022/06/08 14:48:38;;;;;;;1.03;0.90;;;25.30;58.30;;;;;;4976788;28;20252;-69
2022/06/08 14:51:04;;;;;;;0.97;0.83;;;25.10;58.10;;;;;;4976461;28;21016;-70
2022/06/08 14:53:30;;;;;;;2.57;0.70;;;24.90;58.80;;;;;;4974740;28;20492;-70
2022/06/08 14:58:43;;;;;;;1.13;1.03;;;24.50;59.30;;;;;;4976894;28;20457;-71
2022/06/08 15:01:16;;;;;;;0.80;0.80;;;24.30;59.50;;;;;;4976357;28;20415;-69
2022/06/08 15:03:42;;;;;;;2.80;1.40;;;24.10;61.90;;;;;;4975903;28;20440;-72
2022/06/08 15:06:11;;;;;;;1.23;1.13;;;23.80;69.70;;;;;;4975791;28;20428;-69
2022/06/08 15:08:37;;;;;;;0.97;0.97;;;23.30;74.50;;;;;;4975488;28;20176;-70
2022/06/08 15:13:57;;;;;;;1.00;0.87;;;22.40;80.70;;;;;;4975706;28;20552;-70
2022/06/08 15:16:23;;;;;;;1.37;1.00;;;22.00;84.60;;;;;;4974938;28;20463;-69
2022/06/08 15:18:49;;;;;;;1.27;1.27;;;21.70;87.90;;;;;;4975262;28;20470;-71
2022/06/08 15:21:15;;;;;;;1.17;1.00;;;21.40;92.70;;;;;;4975725;28;20200;-69
2022/06/08 15:23:40;;;;;;;1.57;1.30;;;21.20;94.80;;;;;;4973990;28;20196;-71
2022/06/08 15:26:09;;;;;;;1.37;1.30;;;21.00;97.60;;;;;;4975991;28;20180;-69
2022/06/08 15:28:37;;;;;;;2.70;1.30;;;20.80;99.90;;;;;;4975636;28;20652;-72
2022/06/08 15:31:03;;;;;;;1.10;1.10;;;20.60;99.90;;;;;;4975074;28;20391;-70
2022/06/08 15:33:30;;;;;;;2.03;1.20;;;20.50;99.90;;;;;;4975146;28;20463;-70
2022/06/08 15:36:18;;;;;;;1.93;1.40;;;20.40;99.90;;;;;;4974182;28;20393;-69
2022/06/08 15:38:50;;;;;;;2.97;2.30;;;20.30;99.90;;;;;;4975450;28;20495;-71
2022/06/08 15:41:16;;;;;;;1.73;1.43;;;20.20;99.90;;;;;;4975510;28;20488;-69
2022/06/08 15:43:42;;;;;;;1.30;1.20;;;20.10;99.90;;;;;;4974875;28;20482;-71
2022/06/08 15:46:09;;;;;;;1.33;0.97;;;20.00;99.90;;;;;;4956408;28;20396;-69
2022/06/08 15:48:35;;;;;;;0.80;0.80;;;19.80;99.90;;;;;;4956007;28;20482;-70
2022/06/08 15:51:09;;;;;;;1.20;1.10;;;19.50;99.90;;;;;;4955628;28;20500;-69
2022/06/08 15:53:40;;;;;;;1.40;1.30;;;19.40;99.90;;;;;;4955178;28;20515;-69
2022/06/08 15:56:23;;;;;;;1.17;1.07;;;19.20;99.90;;;;;;4956122;28;20738;-69
2022/06/08 15:58:51;;;;;;;1.07;0.90;;;19.20;99.90;;;;;;4957943;28;20519;-70
2022/06/08 16:01:17;;;;;;;1.13;1.13;;;19.20;99.90;;;;;;4974962;28;20412;-69
2022/06/08 16:03:43;;;;;;;1.70;1.60;;;19.10;99.90;;;;;;4973912;28;20435;-70
2022/06/08 16:06:09;;;;;;;1.20;1.20;;;19.00;99.90;;;;;;4974695;28;20438;-66
2022/06/08 16:08:34;;;;;;;2.77;2.03;;;19.00;99.90;;;;;;4975026;28;20422;-64
2022/06/08 16:11:02;;;;;;;3.37;2.00;;;18.90;99.90;;;;;;4974980;28;20785;-64
2022/06/08 16:13:27;;;;;;;3.13;1.90;;;18.80;99.90;;;;;;4972507;28;20275;-65
2022/06/08 16:15:53;;;;;;;2.60;1.20;;;18.60;99.90;;;;;;4955536;29;20543;-64
2022/06/08 16:18:18;;;;;;;1.37;1.10;;;18.60;99.90;;;;;;4956572;28;20212;-66
2022/06/08 16:20:44;;;;;;;1.70;1.60;;;18.60;99.90;;;;;;4955699;29;20633;-66
2022/06/08 16:23:10;;;;;;;7.97;1.50;;;18.60;99.90;;;;;;4954852;28;20651;-65
2022/06/08 16:25:39;;;;;;;1.77;1.60;;;18.60;99.90;;;;;;4955560;29;20169;-65
2022/06/08 16:28:06;;;;;;;16.87;8.83;;;18.60;99.90;;;;;;4969912;28;20442;-66
2022/06/08 16:30:34;;;;;;;1.97;1.87;;;18.60;99.90;;;;;;4973001;28;20431;-63
2022/06/08 16:33:00;;;;;;;1.50;1.40;;;18.60;99.90;;;;;;4974231;28;20416;-65
2022/06/08 16:35:27;;;;;;;2.50;1.90;;;18.50;99.90;;;;;;4974520;28;20410;-64
2022/06/08 16:37:55;;;;;;;1.97;1.87;;;18.50;99.90;;;;;;4973182;28;20790;-64
2022/06/08 16:40:24;;;;;;;5.33;2.67;;;18.50;99.90;;;;;;4974520;28;20379;-65
2022/06/08 16:42:51;;;;;;;2.23;1.90;;;18.40;99.90;;;;;;4959385;28;20762;-64
2022/06/08 16:45:17;;;;;;;6.50;5.30;;;18.40;99.90;;;;;;4955382;28;20432;-64
2022/06/08 16:47:44;;;;;;;5.70;2.93;;;18.30;99.90;;;;;;4955284;29;20421;-64
2022/06/08 16:50:12;;;;;;;2.87;1.83;;;18.30;99.90;;;;;;4956108;28;20502;-64
2022/06/08 16:52:37;;;;;;;2.47;2.30;;;18.30;99.90;;;;;;4954758;28;20416;-63
2022/06/08 16:55:04;;;;;;;2.73;2.20;;;18.30;99.90;;;;;;4954931;28;20999;-63
2022/06/08 17:00:15;;;;;;;3.50;1.57;;;18.40;99.90;;;;;;4955379;29;20938;-65
2022/06/08 17:02:42;;;;;;;2.00;1.90;;;18.40;99.90;;;;;;4954720;28;20416;-63
2022/06/08 17:05:08;;;;;;;2.33;1.60;;;18.30;99.90;;;;;;4963782;28;20514;-63
2022/06/08 17:07:34;;;;;;;3.50;3.13;;;18.20;99.90;;;;;;4974460;28;20948;-63
2022/06/08 17:09:59;;;;;;;3.67;3.30;;;18.10;99.90;;;;;;4974374;28;20464;-63
2022/06/08 17:12:25;;;;;;;5.87;2.80;;;18.10;99.90;;;;;;4974043;28;20195;-63
2022/06/08 17:14:52;;;;;;;3.43;2.60;;;18.10;99.90;;;;;;4974028;28;20253;-61
2022/06/08 17:17:22;;;;;;;2.20;2.10;;;18.10;99.90;;;;;;4976878;28;20462;-64
2022/06/08 17:19:49;;;;;;;3.30;2.30;;;18.00;99.90;;;;;;4974513;28;20445;-64
2022/06/08 17:22:16;;;;;;;2.53;1.90;;;17.90;99.90;;;;;;4977883;28;20417;-64
2022/06/08 17:24:42;;;;;;;4.10;2.47;;;17.80;99.90;;;;;;4976812;28;20412;-65
2022/06/08 17:27:07;;;;;;;1.90;1.80;;;17.70;99.90;;;;;;4977985;28;20413;-64
2022/06/08 17:29:34;;;;;;;2.63;2.10;;;17.60;99.90;;;;;;4972062;28;20249;-65
2022/06/08 17:32:01;;;;;;;2.73;1.67;;;17.50;99.90;;;;;;4965053;28;20218;-66
2022/06/08 17:34:27;;;;;;;2.93;2.70;;;17.50;99.90;;;;;;4965805;28;20431;-63
2022/06/08 17:36:53;;;;;;;2.37;1.73;;;17.50;99.90;;;;;;4977759;28;20448;-64